Terminal Aerodrome Forecast
Issued by NWS Cleveland, OH

Home | Current Version | Previous Version | Text Only | Print | Product List | Glossary On
Versions: 1 2 3 4 5 6 7 8 9 10 11 12 13 14 15 16 17 18 19 20 21 22 23
000
FTUS41 KCLE 272050 AAA
TAFMFD
TAF AMD
KMFD 272050Z 2721/2818 20015G25KT P6SM BKN050
      TEMPO 2723/2801 27020G40KT 2SM TSRA OVC035CB
     FM280100 24008KT P6SM VCSH BKN080
     FM280300 27005KT P6SM BKN120
     FM280900 32003KT 5SM BR SKC
     FM281400 05007KT P6SM SKC=

USA.gov is the U.S. government's official web portal to all federal, state and local government web resources and services.